Caledon, Canada
Current Conditions -  °F | °C
As of 6:00 AM on Friday 19 Dec 2014 (Local Time) from CYYZ Reporting Station
Overcast Overcast  
Wind Chill: 11°   Ceiling: 1200
Heat Index: 23°   Visibility: 15mi
Dew Point: 19°   Wind: 13mph
Humidity: 86%   Direction: 350°N
Pressure: 30.15"   Gusts: NA
Location:  43.87°N, 80°W
Report Text: CYYZ 191100Z 35011KT 15SM OVC012 M05/M07 A3015 RMK SC8 SLP217
Loading
Personal Weather Stations






























Interactive Weather Map New forecast layout! Learn more

10-Day Weather Forecast

Advertisements
Track Severe Weather on mobile